createdAt,value
2022-10-26T00:01:09.120Z,19.19
2022-10-26T00:06:52.699Z,19.19
2022-10-26T00:12:36.131Z,19.2
2022-10-26T00:18:19.226Z,19.23
2022-10-26T00:24:02.855Z,19.2
2022-10-26T00:29:46.097Z,19.21
2022-10-26T00:35:44.871Z,19.21
2022-10-26T00:41:29.071Z,19.25
2022-10-26T00:47:14.723Z,19.26
2022-10-26T00:52:59.198Z,19.27
2022-10-26T00:58:42.954Z,19.28
2022-10-26T01:04:26.711Z,19.29
2022-10-26T01:10:10.711Z,19.28
2022-10-26T01:15:59.875Z,19.31
2022-10-26T01:21:53.277Z,19.32
2022-10-26T01:27:38.196Z,19.32
2022-10-26T01:33:29.562Z,19.3
2022-10-26T01:39:15.822Z,19.31
2022-10-26T01:45:00.630Z,19.32
2022-10-26T01:50:44.966Z,19.34
2022-10-26T01:56:30.021Z,19.33
2022-10-26T02:02:22.790Z,19.33
2022-10-26T02:08:12.384Z,19.31
2022-10-26T02:14:00.695Z,19.35
2022-10-26T02:19:47.665Z,19.35
2022-10-26T02:25:32.595Z,19.32
2022-10-26T02:31:17.214Z,19.32
2022-10-26T02:37:01.421Z,19.3
2022-10-26T02:42:45.913Z,19.3
2022-10-26T02:48:29.564Z,19.31
2022-10-26T02:54:16.064Z,19.29
2022-10-26T03:00:00.093Z,19.28
2022-10-26T03:05:44.715Z,19.27
2022-10-26T03:11:27.834Z,19.26
2022-10-26T03:17:11.133Z,19.27
2022-10-26T03:22:54.654Z,19.27
2022-10-26T03:28:37.930Z,19.28
2022-10-26T03:34:22.087Z,19.27
2022-10-26T03:40:05.540Z,19.26
2022-10-26T03:45:49.676Z,19.27
2022-10-26T03:51:32.682Z,19.27
2022-10-26T03:57:15.747Z,19.24
2022-10-26T04:02:59.442Z,19.23
2022-10-26T04:08:42.670Z,19.21
2022-10-26T04:14:26.214Z,19.22
2022-10-26T04:20:10.385Z,19.25
2022-10-26T04:25:53.524Z,19.28
2022-10-26T04:31:36.727Z,19.23
2022-10-26T04:37:20.151Z,19.23
2022-10-26T04:43:04.592Z,19.23
2022-10-26T04:48:47.866Z,19.22
2022-10-26T04:54:31.202Z,19.21
2022-10-26T05:00:15.233Z,19.21
2022-10-26T05:05:58.662Z,19.21
2022-10-26T05:11:41.765Z,19.22
2022-10-26T05:17:25.194Z,19.26
2022-10-26T05:23:11.009Z,19.22
2022-10-26T05:28:55.527Z,19.22
2022-10-26T05:34:39.509Z,19.19
2022-10-26T05:40:25.347Z,19.2
2022-10-26T05:46:08.495Z,19.21
2022-10-26T05:51:51.897Z,19.18
2022-10-26T05:57:37.341Z,19.15
2022-10-26T06:03:25.820Z,19.12
2022-10-26T06:09:10.749Z,19.1
2022-10-26T06:14:54.547Z,19.1
2022-10-26T06:20:44.458Z,19.08
2022-10-26T06:26:36.284Z,19.05
2022-10-26T06:32:19.540Z,19.05
2022-10-26T06:38:04.286Z,19.03
2022-10-26T06:43:48.307Z,19.06
2022-10-26T06:49:34.806Z,19.03
2022-10-26T06:55:19.494Z,19.05
2022-10-26T07:01:03.909Z,19.05
2022-10-26T07:06:47.163Z,19.07
2022-10-26T07:12:32.080Z,19.08
2022-10-26T07:18:17.272Z,19.13
2022-10-26T07:24:00.660Z,19.14
2022-10-26T07:29:43.906Z,19.17
2022-10-26T07:35:27.104Z,19.21
2022-10-26T07:41:10.490Z,19.24
2022-10-26T07:46:53.718Z,19.3
2022-10-26T07:52:37.212Z,19.33
2022-10-26T07:58:20.535Z,19.38
2022-10-26T08:04:04.938Z,19.46
2022-10-26T08:09:48.189Z,19.51
2022-10-26T08:15:33.501Z,19.56
2022-10-26T08:21:21.549Z,19.64
2022-10-26T08:27:20.603Z,19.75
2022-10-26T08:33:05.289Z,19.82
2022-10-26T08:38:48.543Z,19.88
2022-10-26T08:44:36.119Z,19.94
2022-10-26T08:50:24.458Z,20.07
2022-10-26T08:56:11.250Z,20.18
2022-10-26T09:01:54.581Z,20.28
2022-10-26T09:07:45.642Z,20.4
2022-10-26T09:13:34.675Z,20.53
2022-10-26T09:19:27.636Z,20.66
2022-10-26T09:25:15.963Z,20.78
2022-10-26T09:31:00.846Z,20.85
2022-10-26T09:36:44.043Z,20.93
2022-10-26T09:42:32.254Z,21.05
2022-10-26T09:48:16.512Z,21.18
2022-10-26T09:53:59.803Z,21.31
2022-10-26T09:59:43.831Z,21.4
2022-10-26T10:05:49.626Z,21.46
2022-10-26T10:11:41.475Z,21.6
2022-10-26T10:17:25.447Z,21.75
2022-10-26T10:23:13.511Z,21.89
2022-10-26T10:29:01.144Z,21.99
2022-10-26T10:34:44.758Z,22.08
2022-10-26T10:40:30.561Z,22.19
2022-10-26T10:46:17.748Z,22.38
2022-10-26T10:52:01.038Z,22.49
2022-10-26T10:57:50.933Z,22.61
2022-10-26T11:03:43.669Z,22.7
2022-10-26T11:09:29.154Z,22.77
2022-10-26T11:15:16.591Z,22.9
2022-10-26T11:21:02.061Z,22.94
2022-10-26T11:26:49.290Z,22.97
2022-10-26T11:32:37.030Z,23.03
2022-10-26T11:38:28.036Z,23.1
2022-10-26T11:44:30.263Z,23.19
2022-10-26T11:50:17.606Z,23.29
2022-10-26T11:56:03.099Z,23.33
2022-10-26T12:01:47.168Z,23.45
2022-10-26T12:07:31.810Z,23.52
2022-10-26T12:13:19.498Z,23.57
2022-10-26T12:19:06.290Z,23.64
2022-10-26T12:24:57.082Z,23.73
2022-10-26T12:30:40.646Z,23.85
2022-10-26T12:36:39.550Z,23.9
2022-10-26T12:42:37.271Z,23.99
2022-10-26T12:48:39.662Z,24.06
2022-10-26T12:54:26.698Z,24.14
2022-10-26T13:00:12.610Z,24.19
2022-10-26T13:06:06.902Z,24.28
2022-10-26T13:11:52.614Z,24.34
2022-10-26T13:17:35.776Z,24.43
2022-10-26T13:23:24.193Z,24.51
2022-10-26T13:29:10.335Z,24.6
2022-10-26T13:34:57.329Z,24.67
2022-10-26T13:40:41.617Z,24.79
2022-10-26T13:46:34.483Z,24.9
2022-10-26T13:52:20.223Z,24.96
2022-10-26T13:58:20.758Z,24.98
2022-10-26T14:04:09.004Z,25.08
2022-10-26T14:09:58.678Z,25.13
2022-10-26T14:15:43.481Z,25.28
2022-10-26T14:21:29.509Z,25.28
2022-10-26T14:27:18.486Z,25.31
2022-10-26T14:33:06.714Z,25.27
2022-10-26T14:38:54.183Z,25.2
2022-10-26T14:44:37.465Z,25.14
2022-10-26T14:50:22.827Z,25.03
2022-10-26T14:56:11.140Z,24.92
2022-10-26T15:01:55.724Z,24.81
2022-10-26T15:07:39.536Z,24.72
2022-10-26T15:13:25.526Z,24.61
2022-10-26T15:19:13.418Z,24.47
2022-10-26T15:24:57.961Z,24.32
2022-10-26T15:30:46.236Z,24.19
2022-10-26T15:36:36.548Z,24.08
2022-10-26T15:42:19.734Z,23.98
2022-10-26T15:48:07.953Z,23.93
2022-10-26T15:53:51.813Z,23.83
2022-10-26T15:59:35.094Z,23.69
2022-10-26T16:05:18.491Z,23.54
2022-10-26T16:11:01.995Z,23.42
2022-10-26T16:16:45.258Z,23.35
2022-10-26T16:22:28.543Z,23.23
2022-10-26T16:28:18.107Z,23.15
2022-10-26T16:34:03.129Z,23.04
2022-10-26T16:39:47.391Z,22.94
2022-10-26T16:45:30.602Z,22.86
2022-10-26T16:51:14.742Z,22.79
2022-10-26T16:56:57.786Z,22.72
2022-10-26T17:02:41.033Z,22.64
2022-10-26T17:08:24.814Z,22.55
2022-10-26T17:14:08.262Z,22.48
2022-10-26T17:19:51.564Z,22.41
2022-10-26T17:25:37.304Z,22.33
2022-10-26T17:31:20.559Z,22.26
2022-10-26T17:37:04.694Z,22.16
2022-10-26T17:42:47.939Z,22.09
2022-10-26T17:48:33.143Z,22.02
2022-10-26T18:00:01.453Z,21.87
2022-10-26T18:05:48.079Z,21.83
2022-10-26T18:17:15.506Z,21.76
2022-10-26T18:22:59.263Z,21.7
2022-10-26T18:28:42.821Z,21.63
2022-10-26T18:34:27.201Z,21.56
2022-10-26T18:40:11.959Z,21.5
2022-10-26T18:45:59.945Z,21.48
2022-10-26T18:51:43.194Z,21.45
2022-10-26T18:57:26.742Z,21.38
2022-10-26T19:03:10.007Z,21.32
2022-10-26T19:08:53.691Z,21.26
2022-10-26T19:14:36.711Z,21.24
2022-10-26T19:20:20.065Z,21.23
2022-10-26T19:26:03.571Z,21.2
2022-10-26T19:31:47.693Z,21.15
2022-10-26T19:37:31.032Z,21.11
2022-10-26T19:43:14.487Z,21.09
2022-10-26T19:48:58.915Z,21.04
2022-10-26T19:54:42.407Z,20.99
2022-10-26T20:00:25.726Z,20.92
2022-10-26T20:06:10.063Z,20.88
2022-10-26T20:11:53.326Z,20.86
2022-10-26T20:17:37.957Z,20.83
2022-10-26T20:23:22.455Z,20.79
2022-10-26T20:29:05.924Z,20.78
2022-10-26T20:34:53.108Z,20.86
2022-10-26T20:40:37.421Z,20.91
2022-10-26T20:46:28.610Z,20.97
2022-10-26T20:52:30.835Z,21.03
2022-10-26T20:58:27.316Z,21.12
2022-10-26T21:04:20.520Z,21.15
2022-10-26T21:10:12.682Z,21.14
2022-10-26T21:15:58.329Z,21.05
2022-10-26T21:21:53.876Z,21.01
2022-10-26T21:27:45.170Z,20.99
2022-10-26T21:33:39.611Z,20.96
2022-10-26T21:39:23.584Z,20.94
2022-10-26T21:45:16.378Z,20.88
2022-10-26T21:51:00.721Z,20.86
2022-10-26T21:56:45.033Z,20.83
2022-10-26T22:02:29.025Z,20.78
2022-10-26T22:08:23.294Z,20.73
2022-10-26T22:14:07.732Z,20.72
2022-10-26T22:19:54.002Z,20.66
2022-10-26T22:25:38.379Z,20.63
2022-10-26T22:37:20.790Z,20.55
2022-10-26T22:43:04.840Z,20.52
2022-10-26T22:48:52.562Z,20.47
2022-10-26T22:54:37.654Z,20.45
2022-10-26T23:00:27.327Z,20.42
2022-10-26T23:06:13.466Z,20.38
2022-10-26T23:12:04.649Z,20.36
2022-10-26T23:17:49.119Z,20.35
2022-10-26T23:23:35.743Z,20.32
2022-10-26T23:29:19.648Z,20.26
2022-10-26T23:35:11.228Z,20.26
2022-10-26T23:41:02.285Z,20.27
2022-10-26T23:46:56.172Z,20.27
2022-10-26T23:52:45.689Z,20.27
2022-10-26T23:58:39.497Z,20.22
